Time,TemperatureF,DewpointF,PressureIn,WindDirection,WindDirectionDegrees,WindSpeedMPH,WindSpeedGustMPH,Humidity,HourlyPrecipIn,Conditions,Clouds,dailyrainin,SoftwareType,DateUTC
2013-05-07 00:22:00,48.0,47.0,29.95,West,260,6.0,10.0,95,0.01,,,-99.99,,2013-05-07 07:22:00,
2013-05-07 00:31:00,48.0,47.0,29.95,West,260,6.0,10.0,95,0.01,,,-99.99,,2013-05-07 07:31:00,
2013-05-07 00:42:00,48.0,47.0,29.95,West,260,6.0,10.0,95,0.01,,,-99.99,,2013-05-07 07:42:00,
2013-05-07 00:52:00,48.0,47.0,29.95,West,260,6.0,10.0,95,0.01,,,-99.99,,2013-05-07 07:52:00,
2013-05-07 01:21:00,48.0,47.0,29.94,North,0,0.0,11.0,95,0.01,,,-99.99,,2013-05-07 08:21:00,
2013-05-07 01:31:00,48.0,47.0,29.94,North,0,0.0,11.0,95,0.01,,,-99.99,,2013-05-07 08:31:00,
2013-05-07 01:41:00,48.0,47.0,29.94,North,0,0.0,11.0,95,0.01,,,-99.99,,2013-05-07 08:41:00,
2013-05-07 01:52:00,48.0,47.0,29.94,North,0,0.0,11.0,95,0.01,,,-99.99,,2013-05-07 08:52:00,
2013-05-07 02:22:00,48.0,47.0,29.94,West,260,15.0,17.0,95,0.00,,,-99.99,,2013-05-07 09:22:00,
2013-05-07 02:33:00,48.0,47.0,29.94,West,260,15.0,17.0,95,0.00,,,-99.99,,2013-05-07 09:33:00,
2013-05-07 02:42:00,48.0,47.0,29.94,West,260,15.0,17.0,95,0.00,,,-99.99,,2013-05-07 09:42:00,
2013-05-07 02:52:00,48.0,47.0,29.94,West,260,15.0,17.0,95,0.00,,,-99.99,,2013-05-07 09:52:00,
2013-05-07 03:23:00,48.0,47.0,29.93,WSW,250,6.0,14.0,95,0.00,,,-99.99,,2013-05-07 10:23:00,
2013-05-07 03:32:00,48.0,47.0,29.93,WSW,250,6.0,14.0,95,0.00,,,-99.99,,2013-05-07 10:32:00,
2013-05-07 03:42:00,48.0,47.0,29.93,WSW,250,6.0,14.0,95,0.00,,,-99.99,,2013-05-07 10:42:00,
2013-05-07 03:52:00,48.0,47.0,29.93,WSW,250,6.0,14.0,95,0.00,,,-99.99,,2013-05-07 10:52:00,
2013-05-07 04:22:00,48.0,47.0,29.92,WSW,250,13.0,16.0,95,0.01,,,-99.99,,2013-05-07 11:22:00,
2013-05-07 04:32:00,48.0,47.0,29.92,WSW,250,13.0,16.0,95,0.01,,,-99.99,,2013-05-07 11:32:00,
2013-05-07 04:42:00,48.0,47.0,29.92,WSW,250,13.0,16.0,95,0.01,,,-99.99,,2013-05-07 11:42:00,
2013-05-07 04:51:00,48.0,47.0,29.92,WSW,250,13.0,16.0,95,0.01,,,-99.99,,2013-05-07 11:51:00,
2013-05-07 05:21:00,46.0,45.0,29.93,West,260,7.0,19.0,95,0.06,,,-99.99,,2013-05-07 12:21:00,
2013-05-07 05:32:00,46.0,45.0,29.93,West,260,7.0,19.0,95,0.06,,,-99.99,,2013-05-07 12:32:00,
2013-05-07 05:42:00,46.0,45.0,29.93,West,260,7.0,19.0,95,0.06,,,-99.99,,2013-05-07 12:42:00,
2013-05-07 05:52:00,46.0,45.0,29.93,West,260,7.0,19.0,95,0.06,,,-99.99,,2013-05-07 12:52:00,
2013-05-07 06:21:00,46.0,44.0,29.94,North,0,0.0,10.0,94,0.00,,,-99.99,,2013-05-07 13:21:00,
2013-05-07 06:32:00,46.0,44.0,29.94,North,0,0.0,10.0,94,0.00,,,-99.99,,2013-05-07 13:32:00,
2013-05-07 06:42:00,46.0,44.0,29.94,North,0,0.0,10.0,94,0.00,,,-99.99,,2013-05-07 13:42:00,
2013-05-07 06:52:00,46.0,44.0,29.94,North,0,0.0,10.0,94,0.00,,,-99.99,,2013-05-07 13:52:00,
2013-05-07 07:21:00,46.0,44.0,29.95,WSW,250,3.0,9.0,93,0.00,,,-99.99,,2013-05-07 14:21:00,
2013-05-07 07:31:00,46.0,44.0,29.95,WSW,250,3.0,9.0,93,0.00,,,-99.99,,2013-05-07 14:31:00,
2013-05-07 07:42:00,46.0,44.0,29.95,WSW,250,3.0,9.0,93,0.00,,,-99.99,,2013-05-07 14:42:00,
2013-05-07 07:52:00,46.0,44.0,29.95,WSW,250,3.0,9.0,93,0.00,,,-99.99,,2013-05-07 14:52:00,
2013-05-07 08:21:00,47.0,45.0,29.94,West,260,1.0,7.0,94,0.01,,,-99.99,,2013-05-07 15:21:00,
2013-05-07 08:33:00,47.0,45.0,29.94,West,260,1.0,7.0,94,0.01,,,-99.99,,2013-05-07 15:33:00,
2013-05-07 08:42:00,47.0,45.0,29.94,West,260,1.0,7.0,94,0.01,,,-99.99,,2013-05-07 15:42:00,
2013-05-07 08:53:00,47.0,45.0,29.94,West,260,1.0,7.0,94,0.01,,,-99.99,,2013-05-07 15:53:00,
2013-05-07 11:21:00,47.0,46.0,29.98,West,270,1.0,15.0,95,0.10,,,-99.99,,2013-05-07 18:21:00,
2013-05-07 11:31:00,47.0,46.0,29.98,West,270,1.0,15.0,95,0.10,,,-99.99,,2013-05-07 18:31:00,
2013-05-07 11:41:00,47.0,46.0,29.98,West,270,1.0,15.0,95,0.10,,,-99.99,,2013-05-07 18:41:00,
2013-05-07 11:51:00,47.0,46.0,29.98,West,270,1.0,15.0,95,0.10,,,-99.99,,2013-05-07 18:51:00,
2013-05-07 12:21:00,49.0,47.0,29.97,West,270,5.0,10.0,93,0.00,,,-99.99,,2013-05-07 19:21:00,
2013-05-07 12:32:00,49.0,47.0,29.97,West,270,5.0,10.0,93,0.00,,,-99.99,,2013-05-07 19:32:00,
2013-05-07 12:42:00,49.0,47.0,29.97,West,270,5.0,10.0,93,0.00,,,-99.99,,2013-05-07 19:42:00,
2013-05-07 12:52:00,49.0,47.0,29.97,West,270,5.0,10.0,93,0.00,,,-99.99,,2013-05-07 19:52:00,
2013-05-07 13:21:00,49.0,47.0,29.98,North,0,0.0,9.0,92,0.00,,,-99.99,,2013-05-07 20:21:00,
2013-05-07 13:32:00,49.0,47.0,29.98,North,0,0.0,9.0,92,0.00,,,-99.99,,2013-05-07 20:32:00,
2013-05-07 13:42:00,49.0,47.0,29.98,North,0,0.0,9.0,92,0.00,,,-99.99,,2013-05-07 20:42:00,
2013-05-07 13:51:00,49.0,47.0,29.98,North,0,0.0,9.0,92,0.00,,,-99.99,,2013-05-07 20:51:00,
2013-05-07 14:21:00,51.0,47.0,29.98,West,280,6.0,14.0,87,0.00,,,-99.99,,2013-05-07 21:21:00,
2013-05-07 14:32:00,51.0,47.0,29.98,West,280,6.0,14.0,87,0.00,,,-99.99,,2013-05-07 21:32:00,
2013-05-07 14:42:00,51.0,47.0,29.98,West,280,6.0,14.0,87,0.00,,,-99.99,,2013-05-07 21:42:00,
2013-05-07 14:52:00,51.0,47.0,29.98,West,280,6.0,14.0,87,0.00,,,-99.99,,2013-05-07 21:52:00,
2013-05-07 15:22:00,52.0,46.0,29.97,West,270,2.0,15.0,81,0.00,,,-99.99,,2013-05-07 22:22:00,
2013-05-07 15:32:00,52.0,46.0,29.97,West,270,2.0,15.0,81,0.00,,,-99.99,,2013-05-07 22:32:00,
2013-05-07 15:42:00,52.0,46.0,29.97,West,270,2.0,15.0,81,0.00,,,-99.99,,2013-05-07 22:42:00,
2013-05-07 15:52:00,52.0,46.0,29.97,West,270,2.0,15.0,81,0.00,,,-99.99,,2013-05-07 22:52:00,
2013-05-07 16:21:00,52.0,46.0,29.95,West,260,13.0,14.0,79,0.00,,,-99.99,,2013-05-07 23:21:00,
2013-05-07 16:32:00,52.0,46.0,29.95,West,260,13.0,14.0,79,0.00,,,-99.99,,2013-05-07 23:32:00,
2013-05-07 16:41:00,52.0,46.0,29.95,West,260,13.0,14.0,79,0.00,,,-99.99,,2013-05-07 23:41:00,
2013-05-07 16:52:00,52.0,46.0,29.95,West,260,13.0,14.0,79,0.00,,,-99.99,,2013-05-07 23:52:00,
2013-05-07 17:21:00,51.0,46.0,29.95,West,260,8.0,14.0,82,0.00,,,-99.99,,2013-05-08 00:21:00,
2013-05-07 17:32:00,51.0,46.0,29.95,West,260,8.0,14.0,82,0.00,,,-99.99,,2013-05-08 00:32:00,
2013-05-07 17:42:00,51.0,46.0,29.95,West,260,8.0,14.0,82,0.00,,,-99.99,,2013-05-08 00:42:00,
2013-05-07 17:51:00,51.0,46.0,29.95,West,260,8.0,14.0,82,0.00,,,-99.99,,2013-05-08 00:51:00,
2013-05-07 18:21:00,50.0,45.0,29.95,West,270,8.0,14.0,84,0.00,,,-99.99,,2013-05-08 01:21:00,
2013-05-07 18:31:00,50.0,45.0,29.95,West,270,8.0,14.0,84,0.00,,,-99.99,,2013-05-08 01:31:00,
2013-05-07 18:42:00,50.0,45.0,29.95,West,270,8.0,14.0,84,0.00,,,-99.99,,2013-05-08 01:42:00,
2013-05-07 18:52:00,50.0,45.0,29.95,West,270,8.0,14.0,84,0.00,,,-99.99,,2013-05-08 01:52:00,
2013-05-07 19:22:00,49.0,45.0,29.94,West,270,6.0,12.0,86,0.00,,,-99.99,,2013-05-08 02:22:00,
2013-05-07 19:31:00,49.0,45.0,29.94,West,270,6.0,12.0,86,0.00,,,-99.99,,2013-05-08 02:31:00,
2013-05-07 19:42:00,49.0,45.0,29.94,West,270,6.0,12.0,86,0.00,,,-99.99,,2013-05-08 02:42:00,
2013-05-07 19:52:00,49.0,45.0,29.94,West,270,6.0,12.0,86,0.00,,,-99.99,,2013-05-08 02:52:00,
2013-05-07 20:21:00,49.0,45.0,29.96,West,270,2.0,11.0,87,0.00,,,-99.99,,2013-05-08 03:21:00,
2013-05-07 20:32:00,49.0,45.0,29.96,West,270,2.0,11.0,87,0.00,,,-99.99,,2013-05-08 03:32:00,
2013-05-07 20:43:00,49.0,45.0,29.96,West,270,2.0,11.0,87,0.00,,,-99.99,,2013-05-08 03:43:00,
2013-05-07 20:52:00,49.0,45.0,29.96,West,270,2.0,11.0,87,0.00,,,-99.99,,2013-05-08 03:52:00,
2013-05-07 21:22:00,48.0,44.0,29.99,North,0,0.0,8.0,87,0.00,,,-99.99,,2013-05-08 04:22:00,
2013-05-07 21:33:00,48.0,44.0,29.99,North,0,0.0,8.0,87,0.00,,,-99.99,,2013-05-08 04:33:00,
2013-05-07 21:42:00,48.0,44.0,29.99,North,0,0.0,8.0,87,0.00,,,-99.99,,2013-05-08 04:42:00,
2013-05-07 21:52:00,48.0,44.0,29.99,North,0,0.0,8.0,87,0.00,,,-99.99,,2013-05-08 04:52:00,
2013-05-07 22:22:00,47.0,45.0,30.00,North,0,0.0,9.0,92,0.00,,,-99.99,,2013-05-08 05:22:00,
2013-05-07 22:32:00,47.0,45.0,30.00,North,0,0.0,9.0,92,0.00,,,-99.99,,2013-05-08 05:32:00,
2013-05-07 22:42:00,47.0,45.0,30.00,North,0,0.0,9.0,92,0.00,,,-99.99,,2013-05-08 05:42:00,
2013-05-07 22:52:00,47.0,45.0,30.00,North,0,0.0,9.0,92,0.00,,,-99.99,,2013-05-08 05:52:00,
2013-05-07 23:21:00,47.0,45.0,30.00,North,0,0.0,7.0,93,0.00,,,-99.99,,2013-05-08 06:21:00,
2013-05-07 23:32:00,47.0,45.0,30.00,North,0,0.0,7.0,93,0.00,,,-99.99,,2013-05-08 06:32:00,
2013-05-07 23:41:00,47.0,45.0,30.00,North,0,0.0,7.0,93,0.00,,,-99.99,,2013-05-08 06:41:00,
2013-05-07 23:52:00,47.0,45.0,30.00,North,0,0.0,7.0,93,0.00,,,-99.99,,2013-05-08 06:52:00,